Millport, Alabama
Current Conditions -  °F | °C
As of 6:58 PM on Sunday 23 Nov 2014 (Local Time) from KCBM Reporting Station
Scattered Clouds Scattered Clouds  
Wind Chill: 64°   Ceiling: Unl
Heat Index: 64°   Visibility: 10mi
Dew Point: 56°   Wind: 13mph
Humidity: 77%   Direction: 190°S
Pressure: 29.55"   Gusts: NA
Location:  33.56°N, 88.08°W
Report Text: KCBM 240058Z AUTO 19011KT 10SM SCT039 18/14 A2955 RMK AO2 SLP009 T01760136 $
Loading
Personal Weather Stations






























Interactive Weather Map New forecast layout! Learn more

10-Day Weather Forecast

Advertisements
Track Severe Weather on mobile